createdAt,value
2017-08-17T21:01:48.091Z,101299.92
2017-08-17T21:04:16.577Z,101297.82
2017-08-17T21:06:45.051Z,101300.84
2017-08-17T21:09:13.488Z,101310.03
2017-08-17T21:11:42.007Z,101304.27
2017-08-17T21:14:10.500Z,101308.93
2017-08-17T21:16:38.942Z,101306.89
2017-08-17T21:19:08.164Z,101300.31
2017-08-17T21:21:36.671Z,101291.14
2017-08-17T21:24:05.153Z,101284.06
2017-08-17T21:26:33.585Z,101283.70
2017-08-17T21:29:02.930Z,101285.32
2017-08-17T21:31:31.372Z,101263.34
2017-08-17T21:34:00.710Z,101255.84
2017-08-17T21:36:29.162Z,101276.12
2017-08-17T21:38:58.492Z,101280.17
2017-08-17T21:41:26.932Z,101288.13
2017-08-17T21:43:56.147Z,101284.54
2017-08-17T21:46:24.588Z,101285.93
2017-08-17T21:48:53.136Z,101286.89
2017-08-17T21:51:21.607Z,101290.64
2017-08-17T21:53:50.103Z,101288.13
2017-08-17T21:56:18.585Z,101290.05
2017-08-17T21:58:47.132Z,101289.80
2017-08-17T22:01:16.374Z,101286.28
2017-08-17T22:03:44.848Z,101298.21
2017-08-17T22:06:13.311Z,101298.78
2017-08-17T22:08:41.814Z,101304.13
2017-08-17T22:11:10.268Z,101298.59
2017-08-17T22:13:38.763Z,101304.95
2017-08-17T22:16:07.264Z,101303.06
2017-08-17T22:18:35.746Z,101302.33
2017-08-17T22:21:04.320Z,101300.05
2017-08-17T22:23:32.743Z,101307.27
2017-08-17T22:26:01.204Z,101312.80
2017-08-17T22:28:29.649Z,101306.27
2017-08-17T22:30:58.109Z,101314.30
2017-08-17T22:33:27.343Z,101311.06
2017-08-17T22:35:55.796Z,101316.74
2017-08-17T22:38:24.987Z,101320.44
2017-08-17T22:40:54.208Z,101316.15
2017-08-17T22:43:22.648Z,101317.46
2017-08-17T22:45:51.189Z,101312.04
2017-08-17T22:48:19.633Z,101314.23
2017-08-17T22:50:48.974Z,101307.89
2017-08-17T22:53:17.448Z,101314.89
2017-08-17T22:55:45.937Z,101318.40
2017-08-17T22:58:14.404Z,101314.42
2017-08-17T23:00:42.902Z,101323.65
2017-08-17T23:03:11.389Z,101318.12
2017-08-17T23:05:39.851Z,101312.77
2017-08-17T23:08:08.308Z,101311.63
2017-08-17T23:10:37.542Z,101317.02
2017-08-17T23:13:06.011Z,101312.34
2017-08-17T23:15:34.490Z,101309.01
2017-08-17T23:18:02.944Z,101312.98
2017-08-17T23:20:32.149Z,101325.70
2017-08-17T23:23:01.701Z,101321.52
2017-08-17T23:25:30.171Z,101317.34
2017-08-17T23:27:58.660Z,101321.23
2017-08-17T23:30:27.109Z,101319.52
2017-08-17T23:32:56.434Z,101314.44
2017-08-17T23:35:24.864Z,101308.27
2017-08-17T23:37:53.405Z,101314.89
2017-08-17T23:40:21.875Z,101310.48
2017-08-17T23:42:50.317Z,101311.60
2017-08-17T23:45:18.781Z,101313.72
2017-08-17T23:47:47.327Z,101320.71
2017-08-17T23:50:15.823Z,101317.58
2017-08-17T23:52:44.261Z,101316.25
2017-08-17T23:55:13.592Z,101309.93
2017-08-17T23:57:42.081Z,101312.26
